createdAt,value
2023-01-27T00:01:35.926Z,9.80
2023-01-27T00:04:05.145Z,9.27
2023-01-27T00:06:38.959Z,10.98
2023-01-27T00:09:07.090Z,8.88
2023-01-27T00:11:53.668Z,10.45
2023-01-27T00:14:21.921Z,15.00
2023-01-27T00:16:53.295Z,7.95
2023-01-27T00:19:21.416Z,10.10
2023-01-27T00:22:07.803Z,9.52
2023-01-27T00:24:39.288Z,11.27
2023-01-27T00:27:09.767Z,10.25
2023-01-27T00:29:40.777Z,10.57
2023-01-27T00:32:29.900Z,9.70
2023-01-27T00:34:58.337Z,9.63
2023-01-27T00:37:26.159Z,5.87
2023-01-27T00:39:54.149Z,10.93
2023-01-27T00:42:22.404Z,10.32
2023-01-27T00:45:09.286Z,10.43
2023-01-27T00:47:37.463Z,9.70
2023-01-27T00:50:08.787Z,10.90
2023-01-27T00:52:36.600Z,9.57
2023-01-27T00:55:05.073Z,10.25
2023-01-27T00:57:32.935Z,13.25
2023-01-27T01:00:01.111Z,8.02
2023-01-27T01:02:31.527Z,9.95
2023-01-27T01:04:59.416Z,8.65
2023-01-27T01:07:31.607Z,9.90
2023-01-27T01:09:59.870Z,11.32
2023-01-27T01:12:27.866Z,12.10
2023-01-27T01:14:56.572Z,9.35
2023-01-27T01:17:24.755Z,9.82
2023-01-27T01:19:52.575Z,13.30
2023-01-27T01:22:20.382Z,12.73
2023-01-27T01:24:51.803Z,9.50
2023-01-27T01:27:23.175Z,12.70
2023-01-27T01:29:51.539Z,4.37
2023-01-27T01:32:19.797Z,8.27
2023-01-27T01:34:50.150Z,16.12
2023-01-27T01:37:18.302Z,9.68
2023-01-27T01:39:46.071Z,13.45
2023-01-27T01:42:13.736Z,11.82
2023-01-27T01:44:46.088Z,10.88
2023-01-27T01:47:18.735Z,11.23
2023-01-27T01:49:48.148Z,10.50
2023-01-27T01:52:21.582Z,11.02
2023-01-27T01:54:57.491Z,11.70
2023-01-27T01:57:33.436Z,14.20
2023-01-27T02:00:09.712Z,12.05
2023-01-27T02:02:42.419Z,10.77
2023-01-27T02:05:26.824Z,9.25
2023-01-27T02:08:05.305Z,14.43
2023-01-27T02:10:34.857Z,13.18
2023-01-27T02:13:03.039Z,10.85
2023-01-27T02:15:31.813Z,11.52
2023-01-27T02:18:05.424Z,10.75
2023-01-27T02:20:47.421Z,14.07
2023-01-27T02:23:53.034Z,18.52
2023-01-27T02:26:43.497Z,13.85
2023-01-27T02:29:16.336Z,12.77
2023-01-27T02:31:44.725Z,9.70
2023-01-27T02:34:23.260Z,9.82
2023-01-27T02:36:56.437Z,8.32
2023-01-27T02:39:31.598Z,5.25
2023-01-27T02:42:01.235Z,11.48
2023-01-27T02:44:32.801Z,9.52
2023-01-27T02:47:01.062Z,10.35
2023-01-27T02:49:29.534Z,10.52
2023-01-27T02:52:00.723Z,9.75
2023-01-27T02:54:30.824Z,9.35
2023-01-27T02:57:02.025Z,11.63
2023-01-27T02:59:31.072Z,15.38
2023-01-27T03:02:02.314Z,11.30
2023-01-27T03:04:30.627Z,14.07
2023-01-27T03:06:58.657Z,12.57
2023-01-27T03:09:27.925Z,11.85
2023-01-27T03:12:14.297Z,10.77
2023-01-27T03:15:00.898Z,8.63
2023-01-27T03:17:49.761Z,10.32
2023-01-27T03:20:18.432Z,9.82
2023-01-27T03:22:47.001Z,12.13
2023-01-27T03:25:18.067Z,12.63
2023-01-27T03:27:46.439Z,9.95
2023-01-27T03:30:19.889Z,12.20
2023-01-27T03:32:49.393Z,11.00
2023-01-27T03:35:18.662Z,12.02
2023-01-27T03:38:05.943Z,10.30
2023-01-27T03:40:53.576Z,12.32
2023-01-27T03:43:40.159Z,12.35
2023-01-27T03:46:21.242Z,12.02
2023-01-27T03:48:56.825Z,10.88
2023-01-27T03:51:27.006Z,9.98
2023-01-27T03:53:55.058Z,9.35
2023-01-27T03:56:22.929Z,11.80
2023-01-27T03:58:51.546Z,11.88
2023-01-27T04:01:21.774Z,13.88
2023-01-27T04:04:10.722Z,8.63
2023-01-27T04:07:01.177Z,11.05
2023-01-27T04:09:34.407Z,14.10
2023-01-27T04:12:05.434Z,12.50
2023-01-27T04:14:39.028Z,11.82
2023-01-27T04:17:11.174Z,10.07
2023-01-27T04:22:08.717Z,10.13
2023-01-27T04:24:36.620Z,10.35
2023-01-27T04:27:10.390Z,7.90
2023-01-27T04:29:43.336Z,7.35
2023-01-27T04:32:13.115Z,10.55
2023-01-27T04:34:42.163Z,11.43
2023-01-27T04:37:10.784Z,9.90
2023-01-27T04:39:39.047Z,9.70
2023-01-27T04:42:06.793Z,7.85
2023-01-27T04:44:34.607Z,10.63
2023-01-27T04:47:02.958Z,9.73
2023-01-27T04:49:31.162Z,7.30
2023-01-27T04:52:02.149Z,8.02
2023-01-27T04:54:33.352Z,8.27
2023-01-27T04:57:04.199Z,9.75
2023-01-27T04:59:32.363Z,10.25
2023-01-27T05:02:00.206Z,7.03
2023-01-27T05:04:28.108Z,7.28
2023-01-27T05:06:56.267Z,4.45
2023-01-27T05:09:24.178Z,10.95
2023-01-27T05:11:52.205Z,8.57
2023-01-27T05:14:20.593Z,8.00
2023-01-27T05:16:48.462Z,7.12
2023-01-27T05:19:18.798Z,6.12
2023-01-27T05:21:46.892Z,6.18
2023-01-27T05:24:15.006Z,7.35
2023-01-27T05:26:46.042Z,8.43
2023-01-27T05:29:14.301Z,9.00
2023-01-27T05:31:45.558Z,8.85
2023-01-27T05:34:17.134Z,5.78
2023-01-27T05:36:45.474Z,6.70
2023-01-27T05:39:13.511Z,6.72
2023-01-27T05:41:44.186Z,8.32
2023-01-27T05:44:13.226Z,7.47
2023-01-27T05:46:42.050Z,9.73
2023-01-27T05:49:09.990Z,10.52
2023-01-27T05:51:40.237Z,6.62
2023-01-27T05:54:09.103Z,8.38
2023-01-27T05:56:37.074Z,8.43
2023-01-27T05:59:05.500Z,4.50
2023-01-27T06:01:35.387Z,8.35
2023-01-27T06:04:03.771Z,10.50
2023-01-27T06:06:33.480Z,10.80
2023-01-27T06:09:02.044Z,8.38
2023-01-27T06:11:30.649Z,9.13
2023-01-27T06:13:58.679Z,6.75
2023-01-27T06:16:26.908Z,10.40
2023-01-27T06:18:58.908Z,11.90
2023-01-27T06:21:27.051Z,9.23
2023-01-27T06:23:56.255Z,8.80
2023-01-27T06:26:24.198Z,8.75
2023-01-27T06:28:52.358Z,10.07
2023-01-27T06:31:22.738Z,7.87
2023-01-27T06:33:52.042Z,8.57
2023-01-27T06:36:24.666Z,7.57
2023-01-27T06:38:52.900Z,6.82
2023-01-27T06:41:25.619Z,10.07
2023-01-27T06:43:53.889Z,10.00
2023-01-27T06:46:22.488Z,8.65
2023-01-27T06:48:50.687Z,8.38
2023-01-27T06:51:18.889Z,8.07
2023-01-27T06:53:48.703Z,9.18
2023-01-27T06:56:17.632Z,6.37
2023-01-27T06:58:47.299Z,7.28
2023-01-27T07:01:16.754Z,10.15
2023-01-27T07:03:45.333Z,9.60
2023-01-27T07:06:17.349Z,8.40
2023-01-27T07:08:54.720Z,10.40
2023-01-27T07:11:25.790Z,8.88
2023-01-27T07:13:55.124Z,4.75
2023-01-27T07:16:24.800Z,9.60
2023-01-27T07:18:54.263Z,13.45
2023-01-27T07:21:26.548Z,9.35
2023-01-27T07:23:55.182Z,12.20
2023-01-27T07:26:25.427Z,8.23
2023-01-27T07:28:57.561Z,8.25
2023-01-27T07:31:26.374Z,8.30
2023-01-27T07:33:55.835Z,6.22
2023-01-27T07:36:24.048Z,10.43
2023-01-27T07:38:52.967Z,9.85
2023-01-27T07:41:23.305Z,8.07
2023-01-27T07:46:37.214Z,6.75
2023-01-27T07:49:05.264Z,7.10
2023-01-27T07:51:33.676Z,7.95
2023-01-27T07:54:03.043Z,7.95
2023-01-27T07:56:32.743Z,10.90
2023-01-27T07:59:02.685Z,7.30
2023-01-27T08:01:32.261Z,9.00
2023-01-27T08:04:02.948Z,8.55
2023-01-27T08:06:31.951Z,8.23
2023-01-27T08:09:01.376Z,6.15
2023-01-27T08:11:29.362Z,8.07
2023-01-27T08:13:57.071Z,6.00
2023-01-27T08:16:26.002Z,4.80
2023-01-27T08:18:56.599Z,6.40
2023-01-27T08:21:25.710Z,5.15
2023-01-27T08:23:55.297Z,6.18
2023-01-27T08:26:24.518Z,7.28
2023-01-27T08:28:52.706Z,5.70
2023-01-27T08:31:24.568Z,7.85
2023-01-27T08:33:54.544Z,6.37
2023-01-27T08:36:24.766Z,6.82
2023-01-27T08:38:57.549Z,7.57
2023-01-27T08:41:28.574Z,9.55
2023-01-27T08:44:01.448Z,5.95
2023-01-27T08:46:31.775Z,5.43
2023-01-27T08:49:05.018Z,6.68
2023-01-27T08:51:37.337Z,7.37
2023-01-27T08:54:07.807Z,9.00
2023-01-27T08:56:37.800Z,8.88
2023-01-27T08:59:06.524Z,5.50
2023-01-27T09:01:35.443Z,6.00
2023-01-27T09:04:05.465Z,8.95
2023-01-27T09:06:38.533Z,7.22
2023-01-27T09:09:12.578Z,5.90
2023-01-27T09:11:43.758Z,9.05
2023-01-27T09:14:15.955Z,5.97
2023-01-27T09:16:46.190Z,8.83
2023-01-27T09:19:17.770Z,7.72
2023-01-27T09:21:47.556Z,6.62
2023-01-27T09:24:20.067Z,10.32
2023-01-27T09:26:51.351Z,10.05
2023-01-27T09:29:21.289Z,9.05
2023-01-27T09:31:54.033Z,9.05
2023-01-27T09:34:28.070Z,7.85
2023-01-27T09:37:08.900Z,9.07
2023-01-27T09:39:48.289Z,7.25
2023-01-27T09:42:35.324Z,10.73
2023-01-27T09:45:36.541Z,8.80
2023-01-27T09:48:17.662Z,11.18
2023-01-27T09:51:04.195Z,11.35
2023-01-27T09:53:50.570Z,10.57
2023-01-27T09:56:26.254Z,8.27
2023-01-27T09:59:25.719Z,11.75
2023-01-27T10:02:03.621Z,8.30
2023-01-27T10:04:59.348Z,9.38
2023-01-27T10:07:50.800Z,7.82
2023-01-27T10:10:26.474Z,12.35
2023-01-27T10:13:33.016Z,10.50
2023-01-27T10:16:29.677Z,8.30
2023-01-27T10:19:25.357Z,9.18
2023-01-27T10:21:54.548Z,12.32
2023-01-27T10:24:32.887Z,13.88
2023-01-27T10:27:25.451Z,8.88
2023-01-27T10:30:13.787Z,11.27
2023-01-27T10:33:13.063Z,11.77
2023-01-27T10:35:59.325Z,7.95
2023-01-27T10:38:52.282Z,12.50
2023-01-27T10:41:57.512Z,7.70
2023-01-27T10:45:05.768Z,9.88
2023-01-27T10:47:51.237Z,8.00
2023-01-27T10:50:42.364Z,11.77
2023-01-27T10:53:49.113Z,6.53
2023-01-27T10:56:34.785Z,9.63
2023-01-27T10:59:36.754Z,12.25
2023-01-27T11:02:35.487Z,8.30
2023-01-27T11:05:13.141Z,11.38
2023-01-27T11:08:08.999Z,8.50
2023-01-27T11:11:07.065Z,10.25
2023-01-27T11:13:42.949Z,10.30
2023-01-27T11:16:18.206Z,12.30
2023-01-27T11:19:03.493Z,11.95
2023-01-27T11:21:33.750Z,11.80
2023-01-27T11:24:36.913Z,12.13
2023-01-27T11:27:20.260Z,6.80
2023-01-27T11:30:02.781Z,11.90
2023-01-27T11:32:57.163Z,7.50
2023-01-27T11:35:25.551Z,16.33
2023-01-27T11:38:09.843Z,12.50
2023-01-27T11:40:48.629Z,14.85
2023-01-27T11:43:26.272Z,11.73
2023-01-27T11:46:09.578Z,16.00
2023-01-27T11:51:26.513Z,13.88
2023-01-27T11:54:34.265Z,12.98
2023-01-27T11:57:03.843Z,16.90
2023-01-27T11:59:40.822Z,13.50
2023-01-27T12:02:14.064Z,11.75
2023-01-27T12:05:25.236Z,15.52
2023-01-27T12:08:05.894Z,7.43
2023-01-27T12:10:46.727Z,12.90
2023-01-27T12:13:21.715Z,18.75
2023-01-27T12:15:58.131Z,12.30
2023-01-27T12:18:35.798Z,12.65
2023-01-27T12:21:11.180Z,9.20
2023-01-27T12:23:59.290Z,10.55
2023-01-27T12:26:39.002Z,9.65
2023-01-27T12:29:26.467Z,14.68
2023-01-27T12:32:02.490Z,14.82
2023-01-27T12:34:39.896Z,11.30
2023-01-27T12:37:25.542Z,10.52
2023-01-27T12:40:20.587Z,13.45
2023-01-27T12:43:15.411Z,15.50
2023-01-27T12:46:06.399Z,12.23
2023-01-27T12:48:57.027Z,12.20
2023-01-27T12:51:57.496Z,9.52
2023-01-27T12:54:34.935Z,13.48
2023-01-27T12:57:29.894Z,12.10
2023-01-27T13:00:01.167Z,16.15
2023-01-27T13:02:36.893Z,13.95
2023-01-27T13:05:13.489Z,12.60
2023-01-27T13:07:52.673Z,17.83
2023-01-27T13:10:27.014Z,20.12
2023-01-27T13:12:59.276Z,19.92
2023-01-27T13:15:32.351Z,17.48
2023-01-27T13:18:23.949Z,15.85
2023-01-27T13:21:20.346Z,19.10
2023-01-27T13:23:56.995Z,15.88
2023-01-27T13:26:36.818Z,14.00
2023-01-27T13:29:12.052Z,14.15
2023-01-27T13:31:51.484Z,12.57
2023-01-27T13:34:39.497Z,13.65
2023-01-27T13:37:12.936Z,14.65
2023-01-27T13:39:57.672Z,13.18
2023-01-27T13:43:02.140Z,16.17
2023-01-27T13:46:17.270Z,16.87
2023-01-27T13:48:57.484Z,29.67
2023-01-27T13:51:30.852Z,21.73
2023-01-27T13:54:03.835Z,20.75
2023-01-27T13:57:13.075Z,15.80
2023-01-27T14:00:09.918Z,16.60
2023-01-27T14:05:39.696Z,14.55
2023-01-27T14:08:14.388Z,14.98
2023-01-27T14:10:51.975Z,13.05
2023-01-27T14:13:42.532Z,13.70
2023-01-27T14:16:33.901Z,15.20
2023-01-27T14:19:29.723Z,13.38
2023-01-27T14:22:34.283Z,18.12
2023-01-27T14:25:30.979Z,10.80
2023-01-27T14:28:35.617Z,14.02
2023-01-27T14:31:18.981Z,15.25
2023-01-27T14:33:55.803Z,16.10
2023-01-27T14:36:41.273Z,13.93
2023-01-27T14:39:46.418Z,15.35
2023-01-27T14:42:56.133Z,12.55
2023-01-27T14:45:38.547Z,15.77
2023-01-27T14:48:28.962Z,12.63
2023-01-27T14:51:07.152Z,15.70
2023-01-27T14:53:56.080Z,16.30
2023-01-27T14:56:43.555Z,17.17
2023-01-27T14:59:41.112Z,13.95
2023-01-27T15:02:32.943Z,12.30
2023-01-27T15:05:31.465Z,19.75
2023-01-27T15:08:14.704Z,18.02
2023-01-27T15:11:10.645Z,18.62
2023-01-27T15:13:53.868Z,15.43
2023-01-27T15:16:43.858Z,16.08
2023-01-27T15:19:29.158Z,13.25
2023-01-27T15:22:21.753Z,16.58
2023-01-27T15:25:35.460Z,14.80
2023-01-27T15:28:06.729Z,19.05
2023-01-27T15:30:47.103Z,16.17
2023-01-27T15:33:53.061Z,18.73
2023-01-27T15:36:35.272Z,19.45
2023-01-27T15:39:13.744Z,15.73
2023-01-27T15:42:07.338Z,12.40
2023-01-27T15:45:06.525Z,14.85
2023-01-27T15:47:38.854Z,14.00
2023-01-27T15:50:32.809Z,18.60
2023-01-27T15:53:11.275Z,16.20
2023-01-27T15:55:56.287Z,15.70
2023-01-27T15:58:40.605Z,15.80
2023-01-27T16:04:27.688Z,17.50
2023-01-27T16:07:05.290Z,22.08
2023-01-27T16:09:52.490Z,14.27
2023-01-27T16:12:23.317Z,18.83
2023-01-27T16:15:04.442Z,13.98
2023-01-27T16:17:35.940Z,19.37
2023-01-27T16:20:32.715Z,15.85
2023-01-27T16:23:37.925Z,16.83
2023-01-27T16:26:36.603Z,16.65
2023-01-27T16:29:16.523Z,11.43
2023-01-27T16:31:53.458Z,19.35
2023-01-27T16:37:25.401Z,16.75
2023-01-27T16:40:15.134Z,15.60
2023-01-27T16:43:07.060Z,21.45
2023-01-27T16:45:58.517Z,15.48
2023-01-27T16:48:58.377Z,19.33
2023-01-27T16:51:29.196Z,16.23
2023-01-27T16:54:04.918Z,15.27
2023-01-27T16:56:41.382Z,15.10
2023-01-27T16:59:30.642Z,15.60
2023-01-27T17:02:29.177Z,12.05
2023-01-27T17:05:04.098Z,18.00
2023-01-27T17:07:35.590Z,16.35
2023-01-27T17:10:34.024Z,21.80
2023-01-27T17:13:08.556Z,15.65
2023-01-27T17:15:45.503Z,15.27
2023-01-27T17:18:17.922Z,19.23
2023-01-27T17:20:54.314Z,20.10
2023-01-27T17:23:38.493Z,19.45
2023-01-27T17:26:21.641Z,16.87
2023-01-27T17:28:54.653Z,15.63
2023-01-27T17:31:25.673Z,16.35
2023-01-27T17:34:05.290Z,15.30
2023-01-27T17:36:39.487Z,15.60
2023-01-27T17:39:31.912Z,15.05
2023-01-27T17:42:07.476Z,18.05
2023-01-27T17:44:37.358Z,16.00
2023-01-27T17:47:08.222Z,17.00
2023-01-27T17:49:41.412Z,16.58
2023-01-27T17:52:16.922Z,10.85
2023-01-27T17:54:49.605Z,16.02
2023-01-27T17:57:22.435Z,12.40
2023-01-27T18:00:13.453Z,15.98
2023-01-27T18:03:00.479Z,16.62
2023-01-27T18:05:37.190Z,16.77
2023-01-27T18:08:14.239Z,19.10
2023-01-27T18:10:51.652Z,19.10
2023-01-27T18:13:20.747Z,15.18
2023-01-27T18:16:00.685Z,16.00
2023-01-27T18:18:34.210Z,14.52
2023-01-27T18:21:17.215Z,16.23
2023-01-27T18:24:05.247Z,17.55
2023-01-27T18:26:45.569Z,19.58
2023-01-27T18:29:44.796Z,19.10
2023-01-27T18:32:21.295Z,20.98
2023-01-27T18:34:58.394Z,23.00
2023-01-27T18:37:37.449Z,32.75
2023-01-27T18:40:30.166Z,25.45
2023-01-27T18:43:03.139Z,29.17
2023-01-27T18:45:34.093Z,20.98
2023-01-27T18:48:12.125Z,20.40
2023-01-27T18:50:47.991Z,16.50
2023-01-27T18:53:26.001Z,21.30
2023-01-27T18:55:58.811Z,18.67
2023-01-27T18:58:32.537Z,21.85
2023-01-27T19:01:15.520Z,19.83
2023-01-27T19:03:52.223Z,23.00
2023-01-27T19:06:23.873Z,20.02
2023-01-27T19:08:53.399Z,21.48
2023-01-27T19:11:24.611Z,20.52
2023-01-27T19:13:57.017Z,21.65
2023-01-27T19:16:38.244Z,21.08
2023-01-27T19:19:14.189Z,20.52
2023-01-27T19:21:48.759Z,15.88
2023-01-27T19:24:18.634Z,19.65
2023-01-27T19:26:51.794Z,22.55
2023-01-27T19:29:22.221Z,21.08
2023-01-27T19:31:58.336Z,16.33
2023-01-27T19:34:29.512Z,21.80
2023-01-27T19:37:00.619Z,16.23
2023-01-27T19:39:32.099Z,22.65
2023-01-27T19:42:03.176Z,19.27
2023-01-27T19:44:32.621Z,20.77
2023-01-27T19:47:03.022Z,16.83
2023-01-27T19:49:34.840Z,21.58
2023-01-27T19:52:07.417Z,17.27
2023-01-27T19:54:40.054Z,21.08
2023-01-27T19:57:17.410Z,20.23
2023-01-27T19:59:47.292Z,22.23
2023-01-27T20:02:20.050Z,17.80
2023-01-27T20:04:50.134Z,20.02
2023-01-27T20:07:19.251Z,17.65
2023-01-27T20:09:47.989Z,22.35
2023-01-27T20:12:17.966Z,19.20
2023-01-27T20:14:47.001Z,18.30
2023-01-27T20:17:20.268Z,20.00
2023-01-27T20:19:51.412Z,22.13
2023-01-27T20:22:20.188Z,21.20
2023-01-27T20:24:53.464Z,20.85
2023-01-27T20:27:22.023Z,23.15
2023-01-27T20:29:50.889Z,16.15
2023-01-27T20:32:24.432Z,23.12
2023-01-27T20:34:53.882Z,24.27
2023-01-27T20:37:26.831Z,19.60
2023-01-27T20:39:56.533Z,20.42
2023-01-27T20:42:27.953Z,16.85
2023-01-27T20:44:59.641Z,20.92
2023-01-27T20:47:28.032Z,22.17
2023-01-27T20:49:56.705Z,17.85
2023-01-27T20:52:27.849Z,21.08
2023-01-27T20:54:56.272Z,17.45
2023-01-27T20:57:25.633Z,21.70
2023-01-27T20:59:53.730Z,22.75
2023-01-27T21:02:22.154Z,18.92
2023-01-27T21:04:49.997Z,23.65
2023-01-27T21:07:18.466Z,23.02
2023-01-27T21:09:46.770Z,19.92
2023-01-27T21:12:14.705Z,19.37
2023-01-27T21:14:42.790Z,22.15
2023-01-27T21:17:12.118Z,19.08
2023-01-27T21:19:40.122Z,18.87
2023-01-27T21:22:10.975Z,15.60
2023-01-27T21:24:39.773Z,18.70
2023-01-27T21:27:07.991Z,18.73
2023-01-27T21:29:36.158Z,19.92
2023-01-27T21:32:04.482Z,20.98
2023-01-27T21:34:32.399Z,22.25
2023-01-27T21:37:03.381Z,24.85
2023-01-27T21:39:32.945Z,20.33
2023-01-27T21:42:25.105Z,15.85
2023-01-27T21:45:11.875Z,18.90
2023-01-27T21:47:40.021Z,16.50
2023-01-27T21:50:11.198Z,14.20
2023-01-27T21:52:42.580Z,16.42
2023-01-27T21:55:14.347Z,15.68
2023-01-27T21:57:43.601Z,18.10
2023-01-27T22:00:13.960Z,26.92
2023-01-27T22:02:45.508Z,22.60
2023-01-27T22:05:13.710Z,25.12
2023-01-27T22:07:42.325Z,22.52
2023-01-27T22:10:15.828Z,20.70
2023-01-27T22:12:44.247Z,18.85
2023-01-27T22:15:14.994Z,23.83
2023-01-27T22:17:44.372Z,18.02
2023-01-27T22:20:17.200Z,19.45
2023-01-27T22:22:45.628Z,22.67
2023-01-27T22:25:16.449Z,20.67
2023-01-27T22:27:45.181Z,19.87
2023-01-27T22:30:19.809Z,17.27
2023-01-27T22:32:50.743Z,15.68
2023-01-27T22:35:21.997Z,19.45
2023-01-27T22:37:56.178Z,21.10
2023-01-27T22:40:28.776Z,17.35
2023-01-27T22:42:56.579Z,17.33
2023-01-27T22:45:25.766Z,17.50
2023-01-27T22:47:53.581Z,22.52
2023-01-27T22:50:21.411Z,18.73
2023-01-27T22:52:49.597Z,22.73
2023-01-27T22:55:17.985Z,15.93
2023-01-27T22:57:49.030Z,18.37
2023-01-27T23:00:17.671Z,21.42
2023-01-27T23:02:45.510Z,15.95
2023-01-27T23:05:13.688Z,21.90
2023-01-27T23:07:41.985Z,15.75
2023-01-27T23:10:10.390Z,20.00
2023-01-27T23:12:38.406Z,18.65
2023-01-27T23:15:07.304Z,17.25
2023-01-27T23:17:35.571Z,20.30
2023-01-27T23:20:03.555Z,17.67
2023-01-27T23:22:33.745Z,16.80
2023-01-27T23:25:01.719Z,18.85
2023-01-27T23:27:30.934Z,15.00
2023-01-27T23:29:59.046Z,19.42
2023-01-27T23:32:26.905Z,17.30
2023-01-27T23:34:57.747Z,18.50
2023-01-27T23:37:28.707Z,19.40
2023-01-27T23:39:56.677Z,19.37
2023-01-27T23:42:24.733Z,19.00
2023-01-27T23:44:55.934Z,17.55
2023-01-27T23:47:23.686Z,17.52
2023-01-27T23:49:51.376Z,15.35
2023-01-27T23:52:19.588Z,18.45
2023-01-27T23:54:47.349Z,18.65
2023-01-27T23:57:15.437Z,19.37
2023-01-27T23:59:43.656Z,19.70
